sensor_id;sensor_type;location;lat;lon;timestamp;temperature;humidity
5930;DHT22;2990;48.746;9.236;2023-02-12T00:00:32;4.70;1.00
5930;DHT22;2990;48.746;9.236;2023-02-12T00:02:57;4.70;1.00
5930;DHT22;2990;48.746;9.236;2023-02-12T00:05:23;4.70;1.00
5930;DHT22;2990;48.746;9.236;2023-02-12T00:07:49;4.70;99.90
5930;DHT22;2990;48.746;9.236;2023-02-12T00:10:14;4.70;1.00
5930;DHT22;2990;48.746;9.236;2023-02-12T00:12:40;4.70;1.00
5930;DHT22;2990;48.746;9.236;2023-02-12T00:15:06;4.70;1.00
5930;DHT22;2990;48.746;9.236;2023-02-12T00:17:32;4.70;1.00
5930;DHT22;2990;48.746;9.236;2023-02-12T00:19:57;4.70;14.00
5930;DHT22;2990;48.746;9.236;2023-02-12T00:22:23;4.80;99.90
5930;DHT22;2990;48.746;9.236;2023-02-12T00:24:48;4.70;99.90
5930;DHT22;2990;48.746;9.236;2023-02-12T00:27:14;4.80;1.00
5930;DHT22;2990;48.746;9.236;2023-02-12T00:29:39;4.80;1.00
5930;DHT22;2990;48.746;9.236;2023-02-12T00:32:06;4.80;1.00
5930;DHT22;2990;48.746;9.236;2023-02-12T00:34:32;4.80;1.00
5930;DHT22;2990;48.746;9.236;2023-02-12T00:36:57;4.80;1.00
5930;DHT22;2990;48.746;9.236;2023-02-12T00:39:23;4.80;1.00
5930;DHT22;2990;48.746;9.236;2023-02-12T00:41:48;4.80;1.00
5930;DHT22;2990;48.746;9.236;2023-02-12T00:44:14;4.70;8.80
5930;DHT22;2990;48.746;9.236;2023-02-12T00:46:39;4.70;99.90
5930;DHT22;2990;48.746;9.236;2023-02-12T00:49:05;4.70;99.90
5930;DHT22;2990;48.746;9.236;2023-02-12T00:51:30;4.70;99.90
5930;DHT22;2990;48.746;9.236;2023-02-12T00:53:56;4.70;1.00
5930;DHT22;2990;48.746;9.236;2023-02-12T00:56:21;4.70;1.00
5930;DHT22;2990;48.746;9.236;2023-02-12T00:58:47;4.60;1.00
5930;DHT22;2990;48.746;9.236;2023-02-12T01:01:13;4.70;1.00
5930;DHT22;2990;48.746;9.236;2023-02-12T01:03:38;4.70;1.00
5930;DHT22;2990;48.746;9.236;2023-02-12T01:06:04;4.70;1.00
5930;DHT22;2990;48.746;9.236;2023-02-12T01:08:30;4.70;1.00
5930;DHT22;2990;48.746;9.236;2023-02-12T01:11:00;4.70;76.90
5930;DHT22;2990;48.746;9.236;2023-02-12T01:13:27;4.70;99.90
5930;DHT22;2990;48.746;9.236;2023-02-12T01:18:30;4.70;99.90
5930;DHT22;2990;48.746;9.236;2023-02-12T01:20:56;4.70;1.00
5930;DHT22;2990;48.746;9.236;2023-02-12T01:23:23;4.70;99.90
5930;DHT22;2990;48.746;9.236;2023-02-12T01:25:49;4.70;1.00
5930;DHT22;2990;48.746;9.236;2023-02-12T01:28:14;4.70;1.00
5930;DHT22;2990;48.746;9.236;2023-02-12T01:30:40;4.70;1.00
5930;DHT22;2990;48.746;9.236;2023-02-12T01:33:05;4.70;1.00
5930;DHT22;2990;48.746;9.236;2023-02-12T01:35:31;4.70;99.40
5930;DHT22;2990;48.746;9.236;2023-02-12T01:37:56;4.70;99.90
5930;DHT22;2990;48.746;9.236;2023-02-12T01:40:23;4.70;99.90
5930;DHT22;2990;48.746;9.236;2023-02-12T01:42:48;4.80;99.90
5930;DHT22;2990;48.746;9.236;2023-02-12T01:47:41;4.80;1.00
5930;DHT22;2990;48.746;9.236;2023-02-12T01:50:16;4.80;1.00
5930;DHT22;2990;48.746;9.236;2023-02-12T01:52:44;4.80;1.00
5930;DHT22;2990;48.746;9.236;2023-02-12T01:55:12;4.70;99.90
5930;DHT22;2990;48.746;9.236;2023-02-12T01:57:40;4.80;99.90
5930;DHT22;2990;48.746;9.236;2023-02-12T02:00:15;4.80;1.00
5930;DHT22;2990;48.746;9.236;2023-02-12T02:02:45;4.80;1.00
5930;DHT22;2990;48.746;9.236;2023-02-12T02:05:14;4.80;99.90
5930;DHT22;2990;48.746;9.236;2023-02-12T02:07:42;4.80;1.00
5930;DHT22;2990;48.746;9.236;2023-02-12T02:10:10;4.80;99.90
5930;DHT22;2990;48.746;9.236;2023-02-12T02:12:36;4.80;99.90
5930;DHT22;2990;48.746;9.236;2023-02-12T02:15:20;4.70;99.90
5930;DHT22;2990;48.746;9.236;2023-02-12T02:18:05;4.80;99.90
5930;DHT22;2990;48.746;9.236;2023-02-12T02:24:22;4.80;1.00
5930;DHT22;2990;48.746;9.236;2023-02-12T02:38:48;4.70;99.90
5930;DHT22;2990;48.746;9.236;2023-02-12T02:41:23;4.70;1.00
5930;DHT22;2990;48.746;9.236;2023-02-12T02:43:52;4.60;1.00
5930;DHT22;2990;48.746;9.236;2023-02-12T02:46:33;4.60;99.90
5930;DHT22;2990;48.746;9.236;2023-02-12T02:49:07;4.60;99.90
5930;DHT22;2990;48.746;9.236;2023-02-12T02:51:40;4.60;99.90
5930;DHT22;2990;48.746;9.236;2023-02-12T02:54:31;4.60;1.00
5930;DHT22;2990;48.746;9.236;2023-02-12T02:57:10;4.60;1.00
5930;DHT22;2990;48.746;9.236;2023-02-12T02:59:42;4.60;99.90
5930;DHT22;2990;48.746;9.236;2023-02-12T03:02:20;4.60;99.90
5930;DHT22;2990;48.746;9.236;2023-02-12T03:04:51;4.60;1.00
5930;DHT22;2990;48.746;9.236;2023-02-12T03:07:29;4.60;99.90
5930;DHT22;2990;48.746;9.236;2023-02-12T03:10:01;4.60;1.00
5930;DHT22;2990;48.746;9.236;2023-02-12T03:12:43;4.50;1.00
5930;DHT22;2990;48.746;9.236;2023-02-12T03:17:41;4.50;1.00
5930;DHT22;2990;48.746;9.236;2023-02-12T03:20:30;4.50;1.00
5930;DHT22;2990;48.746;9.236;2023-02-12T03:23:03;4.40;1.00
5930;DHT22;2990;48.746;9.236;2023-02-12T03:25:47;4.40;1.00
5930;DHT22;2990;48.746;9.236;2023-02-12T03:28:32;4.40;1.00
5930;DHT22;2990;48.746;9.236;2023-02-12T03:31:26;4.30;1.00
5930;DHT22;2990;48.746;9.236;2023-02-12T03:34:12;4.30;1.00
5930;DHT22;2990;48.746;9.236;2023-02-12T03:37:15;4.20;1.00
5930;DHT22;2990;48.746;9.236;2023-02-12T03:39:55;4.20;1.00
5930;DHT22;2990;48.746;9.236;2023-02-12T03:42:38;4.20;1.00
5930;DHT22;2990;48.746;9.236;2023-02-12T03:45:35;4.20;99.90
5930;DHT22;2990;48.746;9.236;2023-02-12T03:50:38;4.20;99.90
5930;DHT22;2990;48.746;9.236;2023-02-12T03:53:06;4.10;1.00
5930;DHT22;2990;48.746;9.236;2023-02-12T03:55:35;4.10;46.50
5930;DHT22;2990;48.746;9.236;2023-02-12T03:58:06;4.10;99.90
5930;DHT22;2990;48.746;9.236;2023-02-12T04:00:33;4.10;99.90
5930;DHT22;2990;48.746;9.236;2023-02-12T04:02:58;4.10;99.90
5930;DHT22;2990;48.746;9.236;2023-02-12T04:05:26;4.10;99.90
5930;DHT22;2990;48.746;9.236;2023-02-12T04:07:53;4.10;99.90
5930;DHT22;2990;48.746;9.236;2023-02-12T04:10:33;4.10;99.90
5930;DHT22;2990;48.746;9.236;2023-02-12T04:13:10;4.10;99.90
5930;DHT22;2990;48.746;9.236;2023-02-12T04:15:42;4.10;99.90
5930;DHT22;2990;48.746;9.236;2023-02-12T04:20:49;4.10;99.90
5930;DHT22;2990;48.746;9.236;2023-02-12T04:23:43;4.10;1.00
5930;DHT22;2990;48.746;9.236;2023-02-12T04:26:20;4.10;1.00
5930;DHT22;2990;48.746;9.236;2023-02-12T04:31:35;4.00;1.00
5930;DHT22;2990;48.746;9.236;2023-02-12T04:34:12;4.00;1.00
5930;DHT22;2990;48.746;9.236;2023-02-12T04:37:01;4.00;1.00
5930;DHT22;2990;48.746;9.236;2023-02-12T04:39:31;4.00;1.00
5930;DHT22;2990;48.746;9.236;2023-02-12T04:41:58;4.00;99.90
5930;DHT22;2990;48.746;9.236;2023-02-12T04:44:27;4.00;1.00
5930;DHT22;2990;48.746;9.236;2023-02-12T04:46:53;4.00;1.00
5930;DHT22;2990;48.746;9.236;2023-02-12T04:49:20;4.00;1.00
5930;DHT22;2990;48.746;9.236;2023-02-12T04:51:47;4.00;1.00
5930;DHT22;2990;48.746;9.236;2023-02-12T04:54:17;4.00;1.00
5930;DHT22;2990;48.746;9.236;2023-02-12T04:56:43;4.00;1.00
5930;DHT22;2990;48.746;9.236;2023-02-12T04:59:08;4.00;1.00
5930;DHT22;2990;48.746;9.236;2023-02-12T05:01:35;4.00;1.00
5930;DHT22;2990;48.746;9.236;2023-02-12T05:04:02;4.00;1.00
5930;DHT22;2990;48.746;9.236;2023-02-12T05:06:28;4.00;1.00
5930;DHT22;2990;48.746;9.236;2023-02-12T05:08:55;4.00;1.00
5930;DHT22;2990;48.746;9.236;2023-02-12T05:11:20;4.00;1.00
5930;DHT22;2990;48.746;9.236;2023-02-12T05:13:50;4.00;1.00
5930;DHT22;2990;48.746;9.236;2023-02-12T05:16:16;4.00;1.00
5930;DHT22;2990;48.746;9.236;2023-02-12T05:18:42;4.00;1.00
5930;DHT22;2990;48.746;9.236;2023-02-12T05:21:07;4.10;1.00
5930;DHT22;2990;48.746;9.236;2023-02-12T05:23:35;4.00;1.00
5930;DHT22;2990;48.746;9.236;2023-02-12T05:26:03;4.00;99.90
5930;DHT22;2990;48.746;9.236;2023-02-12T05:28:30;4.00;1.00
5930;DHT22;2990;48.746;9.236;2023-02-12T05:30:59;4.00;1.00
5930;DHT22;2990;48.746;9.236;2023-02-12T05:33:26;4.00;1.00
5930;DHT22;2990;48.746;9.236;2023-02-12T05:35:51;4.00;99.90
5930;DHT22;2990;48.746;9.236;2023-02-12T05:38:17;4.00;1.00
5930;DHT22;2990;48.746;9.236;2023-02-12T05:40:43;4.00;99.90
5930;DHT22;2990;48.746;9.236;2023-02-12T05:43:09;4.10;1.00
5930;DHT22;2990;48.746;9.236;2023-02-12T05:45:35;4.10;1.00
5930;DHT22;2990;48.746;9.236;2023-02-12T05:48:02;4.10;1.00
5930;DHT22;2990;48.746;9.236;2023-02-12T05:50:28;4.10;1.00
5930;DHT22;2990;48.746;9.236;2023-02-12T05:52:54;4.00;1.00
5930;DHT22;2990;48.746;9.236;2023-02-12T05:55:20;4.00;99.90
5930;DHT22;2990;48.746;9.236;2023-02-12T05:57:45;4.00;1.00
5930;DHT22;2990;48.746;9.236;2023-02-12T06:00:11;4.00;1.00
5930;DHT22;2990;48.746;9.236;2023-02-12T06:02:37;4.00;1.00
5930;DHT22;2990;48.746;9.236;2023-02-12T06:05:03;4.00;1.00
5930;DHT22;2990;48.746;9.236;2023-02-12T06:07:28;4.00;1.00
5930;DHT22;2990;48.746;9.236;2023-02-12T06:09:54;4.00;1.00
5930;DHT22;2990;48.746;9.236;2023-02-12T06:12:20;4.00;10.00
5930;DHT22;2990;48.746;9.236;2023-02-12T06:14:46;4.00;1.00
5930;DHT22;2990;48.746;9.236;2023-02-12T06:17:12;4.00;1.00
5930;DHT22;2990;48.746;9.236;2023-02-12T06:19:38;4.00;1.00
5930;DHT22;2990;48.746;9.236;2023-02-12T06:22:03;4.00;1.00
5930;DHT22;2990;48.746;9.236;2023-02-12T06:24:29;4.00;1.00
5930;DHT22;2990;48.746;9.236;2023-02-12T06:26:55;4.00;1.00
5930;DHT22;2990;48.746;9.236;2023-02-12T06:29:20;4.00;99.90
5930;DHT22;2990;48.746;9.236;2023-02-12T06:31:47;4.00;99.90
5930;DHT22;2990;48.746;9.236;2023-02-12T06:34:13;4.00;12.80
5930;DHT22;2990;48.746;9.236;2023-02-12T06:36:41;4.00;19.60
5930;DHT22;2990;48.746;9.236;2023-02-12T06:39:10;3.90;1.00
5930;DHT22;2990;48.746;9.236;2023-02-12T06:41:36;3.90;1.00
5930;DHT22;2990;48.746;9.236;2023-02-12T06:44:02;3.80;53.00
5930;DHT22;2990;48.746;9.236;2023-02-12T06:46:28;3.80;99.90
5930;DHT22;2990;48.746;9.236;2023-02-12T06:48:55;3.80;99.90
5930;DHT22;2990;48.746;9.236;2023-02-12T06:51:21;3.80;99.90
5930;DHT22;2990;48.746;9.236;2023-02-12T06:53:49;3.80;99.90
5930;DHT22;2990;48.746;9.236;2023-02-12T06:56:16;3.80;99.90
5930;DHT22;2990;48.746;9.236;2023-02-12T06:58:44;3.80;99.90
5930;DHT22;2990;48.746;9.236;2023-02-12T07:01:21;3.80;99.90
5930;DHT22;2990;48.746;9.236;2023-02-12T07:03:56;3.80;1.00
5930;DHT22;2990;48.746;9.236;2023-02-12T07:06:22;3.80;1.00
5930;DHT22;2990;48.746;9.236;2023-02-12T07:08:48;3.80;1.00
5930;DHT22;2990;48.746;9.236;2023-02-12T07:11:14;3.80;1.00
5930;DHT22;2990;48.746;9.236;2023-02-12T07:13:40;3.90;67.40
5930;DHT22;2990;48.746;9.236;2023-02-12T07:16:08;3.90;99.90
5930;DHT22;2990;48.746;9.236;2023-02-12T07:18:34;3.90;50.00
5930;DHT22;2990;48.746;9.236;2023-02-12T07:21:00;3.90;1.00
5930;DHT22;2990;48.746;9.236;2023-02-12T07:23:25;3.90;1.00
5930;DHT22;2990;48.746;9.236;2023-02-12T07:25:57;4.00;1.00
5930;DHT22;2990;48.746;9.236;2023-02-12T07:28:23;4.00;99.90
5930;DHT22;2990;48.746;9.236;2023-02-12T07:30:49;4.00;1.00
5930;DHT22;2990;48.746;9.236;2023-02-12T07:39:30;4.20;1.00
5930;DHT22;2990;48.746;9.236;2023-02-12T07:41:56;4.30;99.90
5930;DHT22;2990;48.746;9.236;2023-02-12T07:44:22;4.20;1.00
5930;DHT22;2990;48.746;9.236;2023-02-12T07:46:48;4.30;1.00
5930;DHT22;2990;48.746;9.236;2023-02-12T07:49:17;4.20;99.90
5930;DHT22;2990;48.746;9.236;2023-02-12T07:51:47;4.30;99.90
5930;DHT22;2990;48.746;9.236;2023-02-12T07:54:13;4.30;99.90
5930;DHT22;2990;48.746;9.236;2023-02-12T07:56:40;4.30;33.90
5930;DHT22;2990;48.746;9.236;2023-02-12T07:59:11;4.40;1.00
5930;DHT22;2990;48.746;9.236;2023-02-12T08:01:45;4.40;99.90
5930;DHT22;2990;48.746;9.236;2023-02-12T08:04:15;4.40;51.80
5930;DHT22;2990;48.746;9.236;2023-02-12T08:06:45;4.50;54.50
5930;DHT22;2990;48.746;9.236;2023-02-12T08:09:14;4.50;97.50
5930;DHT22;2990;48.746;9.236;2023-02-12T08:11:41;4.60;1.00
5930;DHT22;2990;48.746;9.236;2023-02-12T08:14:08;4.60;99.90
5930;DHT22;2990;48.746;9.236;2023-02-12T08:16:36;4.70;1.00
5930;DHT22;2990;48.746;9.236;2023-02-12T08:19:03;4.80;1.00
5930;DHT22;2990;48.746;9.236;2023-02-12T08:21:28;4.80;99.90
5930;DHT22;2990;48.746;9.236;2023-02-12T08:23:55;4.90;1.00
5930;DHT22;2990;48.746;9.236;2023-02-12T08:26:23;5.00;1.00
5930;DHT22;2990;48.746;9.236;2023-02-12T08:28:53;5.00;1.00
5930;DHT22;2990;48.746;9.236;2023-02-12T08:31:21;5.10;1.00
5930;DHT22;2990;48.746;9.236;2023-02-12T08:33:48;5.10;99.90
5930;DHT22;2990;48.746;9.236;2023-02-12T08:36:16;5.20;99.90
5930;DHT22;2990;48.746;9.236;2023-02-12T08:38:43;5.20;99.90
5930;DHT22;2990;48.746;9.236;2023-02-12T08:41:14;5.30;1.00
5930;DHT22;2990;48.746;9.236;2023-02-12T08:43:40;5.20;1.00
5930;DHT22;2990;48.746;9.236;2023-02-12T08:46:09;5.40;39.90
5930;DHT22;2990;48.746;9.236;2023-02-12T08:48:35;5.40;1.00
5930;DHT22;2990;48.746;9.236;2023-02-12T08:51:13;5.40;99.90
5930;DHT22;2990;48.746;9.236;2023-02-12T08:53:39;5.50;1.00
5930;DHT22;2990;48.746;9.236;2023-02-12T08:56:06;5.60;10.20
5930;DHT22;2990;48.746;9.236;2023-02-12T08:58:33;5.60;99.90
5930;DHT22;2990;48.746;9.236;2023-02-12T09:00:59;5.60;1.00
5930;DHT22;2990;48.746;9.236;2023-02-12T09:03:28;5.70;1.00
5930;DHT22;2990;48.746;9.236;2023-02-12T09:05:53;5.80;1.00
5930;DHT22;2990;48.746;9.236;2023-02-12T09:08:19;5.90;1.00
5930;DHT22;2990;48.746;9.236;2023-02-12T09:10:45;5.90;92.80
5930;DHT22;2990;48.746;9.236;2023-02-12T09:13:12;6.00;1.00
5930;DHT22;2990;48.746;9.236;2023-02-12T09:15:39;6.00;1.00
5930;DHT22;2990;48.746;9.236;2023-02-12T09:18:05;6.00;1.00
5930;DHT22;2990;48.746;9.236;2023-02-12T09:20:31;6.00;1.00
5930;DHT22;2990;48.746;9.236;2023-02-12T09:22:58;6.10;99.90
5930;DHT22;2990;48.746;9.236;2023-02-12T09:25:26;6.20;28.50
5930;DHT22;2990;48.746;9.236;2023-02-12T09:27:53;6.10;99.90
5930;DHT22;2990;48.746;9.236;2023-02-12T09:34:05;6.40;1.00
5930;DHT22;2990;48.746;9.236;2023-02-12T09:36:32;6.50;1.00
5930;DHT22;2990;48.746;9.236;2023-02-12T09:38:58;6.40;99.90
5930;DHT22;2990;48.746;9.236;2023-02-12T09:44:20;6.60;83.80
5930;DHT22;2990;48.746;9.236;2023-02-12T09:52:58;6.90;99.90
5930;DHT22;2990;48.746;9.236;2023-02-12T09:55:30;6.90;99.90
5930;DHT22;2990;48.746;9.236;2023-02-12T09:57:58;6.90;77.00
5930;DHT22;2990;48.746;9.236;2023-02-12T10:00:27;6.90;1.00
5930;DHT22;2990;48.746;9.236;2023-02-12T10:02:57;7.00;1.00
5930;DHT22;2990;48.746;9.236;2023-02-12T10:05:34;6.90;1.00
5930;DHT22;2990;48.746;9.236;2023-02-12T10:23:14;7.20;99.90
5930;DHT22;2990;48.746;9.236;2023-02-12T10:25:54;7.40;1.00
5930;DHT22;2990;48.746;9.236;2023-02-12T10:28:26;7.40;1.00
5930;DHT22;2990;48.746;9.236;2023-02-12T10:31:11;7.50;99.90
5930;DHT22;2990;48.746;9.236;2023-02-12T10:33:47;7.60;99.90
5930;DHT22;2990;48.746;9.236;2023-02-12T10:39:36;7.70;99.90
5930;DHT22;2990;48.746;9.236;2023-02-12T10:42:14;7.60;99.90
5930;DHT22;2990;48.746;9.236;2023-02-12T10:44:43;7.60;99.90
5930;DHT22;2990;48.746;9.236;2023-02-12T10:47:20;7.60;1.00
5930;DHT22;2990;48.746;9.236;2023-02-12T10:49:58;7.70;99.90
5930;DHT22;2990;48.746;9.236;2023-02-12T10:55:46;7.70;1.00
5930;DHT22;2990;48.746;9.236;2023-02-12T10:58:18;7.70;99.90
5930;DHT22;2990;48.746;9.236;2023-02-12T11:00:44;7.80;99.90
5930;DHT22;2990;48.746;9.236;2023-02-12T11:03:28;7.90;99.90
5930;DHT22;2990;48.746;9.236;2023-02-12T11:06:19;8.10;6.50
5930;DHT22;2990;48.746;9.236;2023-02-12T11:11:57;8.10;1.00
5930;DHT22;2990;48.746;9.236;2023-02-12T11:14:32;8.20;1.00
5930;DHT22;2990;48.746;9.236;2023-02-12T11:16:59;8.30;1.00
5930;DHT22;2990;48.746;9.236;2023-02-12T11:19:31;8.20;1.00
5930;DHT22;2990;48.746;9.236;2023-02-12T11:22:16;8.30;1.00
5930;DHT22;2990;48.746;9.236;2023-02-12T11:24:59;8.10;1.00
5930;DHT22;2990;48.746;9.236;2023-02-12T11:30:31;7.90;1.00
5930;DHT22;2990;48.746;9.236;2023-02-12T11:33:28;7.90;47.90
5930;DHT22;2990;48.746;9.236;2023-02-12T11:39:23;7.90;99.90
5930;DHT22;2990;48.746;9.236;2023-02-12T11:42:23;7.80;99.90
5930;DHT22;2990;48.746;9.236;2023-02-12T11:44:56;7.80;99.90
5930;DHT22;2990;48.746;9.236;2023-02-12T11:47:32;7.90;1.00
5930;DHT22;2990;48.746;9.236;2023-02-12T11:55:55;8.20;1.00
5930;DHT22;2990;48.746;9.236;2023-02-12T12:04:41;8.00;99.90
5930;DHT22;2990;48.746;9.236;2023-02-12T12:07:33;8.10;6.90
5930;DHT22;2990;48.746;9.236;2023-02-12T12:10:52;8.20;1.00
5930;DHT22;2990;48.746;9.236;2023-02-12T12:13:08;8.00;1.00
5930;DHT22;2990;48.746;9.236;2023-02-12T12:16:01;8.00;99.90
5930;DHT22;2990;48.746;9.236;2023-02-12T12:19:20;8.00;1.00
5930;DHT22;2990;48.746;9.236;2023-02-12T12:25:15;8.30;99.90
5930;DHT22;2990;48.746;9.236;2023-02-12T12:27:59;8.40;1.00
5930;DHT22;2990;48.746;9.236;2023-02-12T12:55:39;8.20;1.00
5930;DHT22;2990;48.746;9.236;2023-02-12T12:58:56;8.20;1.00
5930;DHT22;2990;48.746;9.236;2023-02-12T13:01:48;8.20;1.00
5930;DHT22;2990;48.746;9.236;2023-02-12T13:07:37;7.90;99.90
5930;DHT22;2990;48.746;9.236;2023-02-12T13:10:16;8.00;99.90
5930;DHT22;2990;48.746;9.236;2023-02-12T13:12:55;8.20;13.90
5930;DHT22;2990;48.746;9.236;2023-02-12T13:16:08;8.50;1.00
5930;DHT22;2990;48.746;9.236;2023-02-12T13:22:56;9.10;99.90
5930;DHT22;2990;48.746;9.236;2023-02-12T13:25:36;9.20;1.00
5930;DHT22;2990;48.746;9.236;2023-02-12T13:28:08;9.30;1.00
5930;DHT22;2990;48.746;9.236;2023-02-12T13:30:56;9.40;1.00
5930;DHT22;2990;48.746;9.236;2023-02-12T13:34:04;9.30;1.00
5930;DHT22;2990;48.746;9.236;2023-02-12T13:36:38;9.30;1.00
5930;DHT22;2990;48.746;9.236;2023-02-12T13:45:23;9.50;1.00
5930;DHT22;2990;48.746;9.236;2023-02-12T14:09:18;9.80;1.00
5930;DHT22;2990;48.746;9.236;2023-02-12T14:11:54;9.80;1.00
5930;DHT22;2990;48.746;9.236;2023-02-12T14:14:27;9.60;1.00
5930;DHT22;2990;48.746;9.236;2023-02-12T14:23:33;9.40;1.00
5930;DHT22;2990;48.746;9.236;2023-02-12T14:26:29;9.60;1.00
5930;DHT22;2990;48.746;9.236;2023-02-12T14:39:39;9.50;1.00
5930;DHT22;2990;48.746;9.236;2023-02-12T14:45:27;9.40;1.00
5930;DHT22;2990;48.746;9.236;2023-02-12T14:48:04;9.30;1.00
5930;DHT22;2990;48.746;9.236;2023-02-12T14:54:02;9.40;1.00
5930;DHT22;2990;48.746;9.236;2023-02-12T14:59:47;9.20;1.00
5930;DHT22;2990;48.746;9.236;2023-02-12T15:02:32;9.00;1.00
5930;DHT22;2990;48.746;9.236;2023-02-12T15:05:04;8.90;1.00
5930;DHT22;2990;48.746;9.236;2023-02-12T15:07:40;8.80;1.00
5930;DHT22;2990;48.746;9.236;2023-02-12T15:10:16;8.80;1.00
5930;DHT22;2990;48.746;9.236;2023-02-12T15:19:52;8.70;24.00
5930;DHT22;2990;48.746;9.236;2023-02-12T15:25:26;8.70;99.90
5930;DHT22;2990;48.746;9.236;2023-02-12T15:34:43;8.40;99.90
5930;DHT22;2990;48.746;9.236;2023-02-12T15:37:59;8.30;1.00
5930;DHT22;2990;48.746;9.236;2023-02-12T15:54:10;7.60;1.00
5930;DHT22;2990;48.746;9.236;2023-02-12T15:56:43;7.60;99.90
5930;DHT22;2990;48.746;9.236;2023-02-12T15:59:22;7.60;1.00
5930;DHT22;2990;48.746;9.236;2023-02-12T16:02:00;7.40;88.90
5930;DHT22;2990;48.746;9.236;2023-02-12T16:04:49;7.40;1.00
5930;DHT22;2990;48.746;9.236;2023-02-12T16:07:18;7.30;99.90
5930;DHT22;2990;48.746;9.236;2023-02-12T16:10:07;7.30;1.00
5930;DHT22;2990;48.746;9.236;2023-02-12T16:12:37;7.10;1.00
5930;DHT22;2990;48.746;9.236;2023-02-12T16:18:40;7.00;99.90
5930;DHT22;2990;48.746;9.236;2023-02-12T16:21:21;6.90;1.00
5930;DHT22;2990;48.746;9.236;2023-02-12T16:27:22;6.80;28.60
5930;DHT22;2990;48.746;9.236;2023-02-12T16:30:23;6.70;1.00
5930;DHT22;2990;48.746;9.236;2023-02-12T16:33:28;6.60;99.90
5930;DHT22;2990;48.746;9.236;2023-02-12T16:42:01;6.20;1.00
5930;DHT22;2990;48.746;9.236;2023-02-12T16:44:35;6.30;99.90
5930;DHT22;2990;48.746;9.236;2023-02-12T16:47:05;6.20;99.90
5930;DHT22;2990;48.746;9.236;2023-02-12T16:49:39;6.00;1.00
5930;DHT22;2990;48.746;9.236;2023-02-12T16:52:28;6.20;1.00
5930;DHT22;2990;48.746;9.236;2023-02-12T16:55:01;5.80;1.00
5930;DHT22;2990;48.746;9.236;2023-02-12T16:57:27;5.90;1.00
5930;DHT22;2990;48.746;9.236;2023-02-12T16:59:53;5.80;72.30
5930;DHT22;2990;48.746;9.236;2023-02-12T17:02:18;5.80;99.90
5930;DHT22;2990;48.746;9.236;2023-02-12T17:04:44;5.80;99.90
5930;DHT22;2990;48.746;9.236;2023-02-12T17:07:22;5.70;99.90
5930;DHT22;2990;48.746;9.236;2023-02-12T17:09:57;5.80;99.90
5930;DHT22;2990;48.746;9.236;2023-02-12T17:16:12;5.60;99.90
5930;DHT22;2990;48.746;9.236;2023-02-12T17:19:03;5.50;99.90
5930;DHT22;2990;48.746;9.236;2023-02-12T17:31:12;5.30;1.00
5930;DHT22;2990;48.746;9.236;2023-02-12T17:33:54;5.30;1.00
5930;DHT22;2990;48.746;9.236;2023-02-12T17:36:20;5.20;1.00
5930;DHT22;2990;48.746;9.236;2023-02-12T17:38:45;5.20;1.00
5930;DHT22;2990;48.746;9.236;2023-02-12T17:41:22;5.10;1.00
5930;DHT22;2990;48.746;9.236;2023-02-12T17:44:19;5.30;1.00
5930;DHT22;2990;48.746;9.236;2023-02-12T17:47:22;5.20;1.00
5930;DHT22;2990;48.746;9.236;2023-02-12T17:49:53;5.20;1.00
5930;DHT22;2990;48.746;9.236;2023-02-12T17:52:29;5.10;1.00
5930;DHT22;2990;48.746;9.236;2023-02-12T17:55:05;5.10;1.00
5930;DHT22;2990;48.746;9.236;2023-02-12T17:57:55;5.10;1.00
5930;DHT22;2990;48.746;9.236;2023-02-12T18:01:29;5.10;1.00
5930;DHT22;2990;48.746;9.236;2023-02-12T18:03:57;4.90;1.00
5930;DHT22;2990;48.746;9.236;2023-02-12T18:07:03;5.00;1.00
5930;DHT22;2990;48.746;9.236;2023-02-12T18:09:29;5.00;1.00
5930;DHT22;2990;48.746;9.236;2023-02-12T18:15:09;5.10;1.00
5930;DHT22;2990;48.746;9.236;2023-02-12T18:24:34;5.20;1.00
5930;DHT22;2990;48.746;9.236;2023-02-12T18:27:02;5.30;1.00
5930;DHT22;2990;48.746;9.236;2023-02-12T18:29:28;5.20;1.00
5930;DHT22;2990;48.746;9.236;2023-02-12T18:31:56;5.20;99.90
5930;DHT22;2990;48.746;9.236;2023-02-12T18:44:13;5.10;99.90
5930;DHT22;2990;48.746;9.236;2023-02-12T18:46:52;5.10;99.90
5930;DHT22;2990;48.746;9.236;2023-02-12T18:49:45;5.00;99.90
5930;DHT22;2990;48.746;9.236;2023-02-12T18:52:36;5.00;99.90
5930;DHT22;2990;48.746;9.236;2023-02-12T19:16:20;4.70;99.90
5930;DHT22;2990;48.746;9.236;2023-02-12T19:19:23;4.70;99.90
5930;DHT22;2990;48.746;9.236;2023-02-12T19:26:27;4.60;30.80
5930;DHT22;2990;48.746;9.236;2023-02-12T19:29:15;4.70;1.00
5930;DHT22;2990;48.746;9.236;2023-02-12T19:32:19;4.70;66.40
5930;DHT22;2990;48.746;9.236;2023-02-12T20:09:18;4.20;1.00
5930;DHT22;2990;48.746;9.236;2023-02-12T20:11:44;4.10;1.00
5930;DHT22;2990;48.746;9.236;2023-02-12T20:14:11;4.10;1.00
5930;DHT22;2990;48.746;9.236;2023-02-12T20:16:38;4.10;1.00
5930;DHT22;2990;48.746;9.236;2023-02-12T20:19:19;4.20;1.00
5930;DHT22;2990;48.746;9.236;2023-02-12T20:21:46;4.10;1.00
5930;DHT22;2990;48.746;9.236;2023-02-12T20:24:17;4.00;1.00
5930;DHT22;2990;48.746;9.236;2023-02-12T20:26:43;4.00;1.00
5930;DHT22;2990;48.746;9.236;2023-02-12T20:29:11;3.90;1.00
5930;DHT22;2990;48.746;9.236;2023-02-12T20:31:37;3.80;1.00
5930;DHT22;2990;48.746;9.236;2023-02-12T20:34:07;3.90;1.00
5930;DHT22;2990;48.746;9.236;2023-02-12T20:36:37;4.00;1.00
5930;DHT22;2990;48.746;9.236;2023-02-12T20:39:07;3.80;1.00
5930;DHT22;2990;48.746;9.236;2023-02-12T20:41:37;3.70;1.00
5930;DHT22;2990;48.746;9.236;2023-02-12T20:44:08;4.00;1.00
5930;DHT22;2990;48.746;9.236;2023-02-12T20:46:45;3.80;1.00
5930;DHT22;2990;48.746;9.236;2023-02-12T20:49:15;3.80;1.00
5930;DHT22;2990;48.746;9.236;2023-02-12T20:51:41;3.90;1.00
5930;DHT22;2990;48.746;9.236;2023-02-12T20:54:11;3.70;1.00
5930;DHT22;2990;48.746;9.236;2023-02-12T20:56:37;3.70;1.00
5930;DHT22;2990;48.746;9.236;2023-02-12T20:59:06;3.90;1.00
5930;DHT22;2990;48.746;9.236;2023-02-12T21:02:03;3.80;1.00
5930;DHT22;2990;48.746;9.236;2023-02-12T21:04:32;3.60;1.00
5930;DHT22;2990;48.746;9.236;2023-02-12T21:07:24;3.70;1.00
5930;DHT22;2990;48.746;9.236;2023-02-12T21:09:59;3.80;1.00
5930;DHT22;2990;48.746;9.236;2023-02-12T21:12:31;3.80;1.00
5930;DHT22;2990;48.746;9.236;2023-02-12T21:15:02;3.80;1.00
5930;DHT22;2990;48.746;9.236;2023-02-12T21:17:30;3.80;1.00
5930;DHT22;2990;48.746;9.236;2023-02-12T21:19:59;3.80;1.00
5930;DHT22;2990;48.746;9.236;2023-02-12T21:22:25;3.80;1.00
5930;DHT22;2990;48.746;9.236;2023-02-12T21:24:51;3.70;1.00
5930;DHT22;2990;48.746;9.236;2023-02-12T21:27:16;3.70;1.00
5930;DHT22;2990;48.746;9.236;2023-02-12T21:29:42;3.70;1.00
5930;DHT22;2990;48.746;9.236;2023-02-12T21:32:08;3.70;1.00
5930;DHT22;2990;48.746;9.236;2023-02-12T21:34:33;3.70;1.00
5930;DHT22;2990;48.746;9.236;2023-02-12T21:37:02;3.70;1.00
5930;DHT22;2990;48.746;9.236;2023-02-12T21:39:27;3.60;1.00
5930;DHT22;2990;48.746;9.236;2023-02-12T21:42:01;3.60;1.00
5930;DHT22;2990;48.746;9.236;2023-02-12T21:44:28;3.50;1.00
5930;DHT22;2990;48.746;9.236;2023-02-12T21:46:55;3.60;1.00
5930;DHT22;2990;48.746;9.236;2023-02-12T21:49:21;3.50;1.00
5930;DHT22;2990;48.746;9.236;2023-02-12T21:51:56;3.60;1.00
5930;DHT22;2990;48.746;9.236;2023-02-12T21:54:23;3.50;1.00
5930;DHT22;2990;48.746;9.236;2023-02-12T21:56:49;3.60;1.00
5930;DHT22;2990;48.746;9.236;2023-02-12T21:59:16;3.50;1.00
5930;DHT22;2990;48.746;9.236;2023-02-12T22:01:48;3.50;1.00
5930;DHT22;2990;48.746;9.236;2023-02-12T22:04:14;3.50;1.00
5930;DHT22;2990;48.746;9.236;2023-02-12T22:06:45;3.50;1.00
5930;DHT22;2990;48.746;9.236;2023-02-12T22:09:13;3.60;1.00
5930;DHT22;2990;48.746;9.236;2023-02-12T22:11:40;3.60;1.00
5930;DHT22;2990;48.746;9.236;2023-02-12T22:14:06;3.60;1.00
5930;DHT22;2990;48.746;9.236;2023-02-12T22:16:35;3.40;1.00
5930;DHT22;2990;48.746;9.236;2023-02-12T22:19:02;3.60;1.00
5930;DHT22;2990;48.746;9.236;2023-02-12T22:21:34;3.60;1.00
5930;DHT22;2990;48.746;9.236;2023-02-12T22:24:05;3.50;1.00